createdAt,value
2023-02-17T00:01:13.880Z,0.30
2023-02-17T00:03:41.473Z,0.31
2023-02-17T00:06:10.551Z,0.32
2023-02-17T00:08:37.905Z,0.33
2023-02-17T00:11:05.397Z,0.33
2023-02-17T00:13:32.357Z,0.34
2023-02-17T00:15:59.560Z,0.34
2023-02-17T00:18:26.924Z,0.36
2023-02-17T00:20:53.898Z,0.34
2023-02-17T00:23:20.694Z,0.39
2023-02-17T00:25:48.033Z,0.37
2023-02-17T00:28:14.740Z,0.41
2023-02-17T00:30:41.375Z,0.42
2023-02-17T00:33:08.486Z,0.33
2023-02-17T00:35:39.764Z,0.43
2023-02-17T00:38:07.676Z,0.42
2023-02-17T00:40:34.618Z,0.41
2023-02-17T00:43:02.574Z,0.41
2023-02-17T00:45:29.377Z,0.41
2023-02-17T00:47:56.430Z,0.41
2023-02-17T00:50:23.041Z,0.33
2023-02-17T00:52:49.800Z,0.31
2023-02-17T00:55:17.127Z,0.43
2023-02-17T00:57:43.981Z,0.44
2023-02-17T01:00:11.144Z,0.40
2023-02-17T01:02:38.203Z,0.34
2023-02-17T01:05:05.478Z,0.41
2023-02-17T01:07:32.382Z,0.40
2023-02-17T01:09:59.418Z,0.39
2023-02-17T01:12:27.798Z,0.27
2023-02-17T01:14:54.433Z,0.34
2023-02-17T01:17:23.948Z,0.37
2023-02-17T01:19:51.620Z,0.37
2023-02-17T01:22:18.513Z,0.35
2023-02-17T01:24:45.434Z,0.32
2023-02-17T01:27:12.226Z,0.28
2023-02-17T01:29:38.851Z,0.26
2023-02-17T01:32:06.241Z,0.22
2023-02-17T01:34:33.173Z,0.20
2023-02-17T01:37:00.175Z,0.19
2023-02-17T01:39:27.810Z,0.17
2023-02-17T01:41:54.491Z,0.16
2023-02-17T01:44:24.282Z,0.16
2023-02-17T01:46:53.822Z,0.17
2023-02-17T01:49:38.184Z,0.19
2023-02-17T01:52:13.208Z,0.22
2023-02-17T01:54:50.190Z,0.24
2023-02-17T01:57:21.249Z,0.16
2023-02-17T01:59:49.217Z,0.27
2023-02-17T02:02:17.014Z,0.26
2023-02-17T02:04:49.532Z,0.26
2023-02-17T02:07:21.805Z,0.28
2023-02-17T02:09:56.882Z,0.20
2023-02-17T02:12:27.715Z,0.29
2023-02-17T02:15:01.804Z,0.29
2023-02-17T02:17:59.926Z,0.29
2023-02-17T02:20:49.130Z,0.30
2023-02-17T02:23:42.365Z,0.30
2023-02-17T02:26:24.665Z,0.32
2023-02-17T02:28:54.531Z,0.33
2023-02-17T02:31:52.850Z,0.35
2023-02-17T02:34:26.086Z,0.36
2023-02-17T02:37:05.628Z,0.37
2023-02-17T02:39:38.034Z,0.39
2023-02-17T02:42:08.075Z,0.39
2023-02-17T02:44:35.307Z,0.40
2023-02-17T02:47:27.338Z,0.38
2023-02-17T02:49:54.720Z,0.38
2023-02-17T02:52:45.218Z,0.39
2023-02-17T02:55:24.271Z,0.38
2023-02-17T02:58:20.256Z,0.39
2023-02-17T03:01:14.024Z,0.39
2023-02-17T03:04:04.234Z,0.38
2023-02-17T03:06:45.798Z,0.29
2023-02-17T03:09:22.482Z,0.41
2023-02-17T03:11:50.349Z,0.36
2023-02-17T03:14:20.086Z,0.39
2023-02-17T03:16:48.319Z,0.32
2023-02-17T03:19:19.029Z,0.45
2023-02-17T03:22:12.219Z,0.48
2023-02-17T03:24:39.839Z,0.50
2023-02-17T03:27:06.797Z,0.53
2023-02-17T03:29:33.632Z,0.49
2023-02-17T03:32:00.864Z,0.55
2023-02-17T03:34:27.551Z,0.58
2023-02-17T03:36:54.266Z,0.59
2023-02-17T03:39:21.328Z,0.53
2023-02-17T03:41:51.513Z,0.55
2023-02-17T03:44:18.788Z,0.64
2023-02-17T03:46:46.607Z,0.64
2023-02-17T03:49:13.454Z,0.65
2023-02-17T03:51:40.289Z,0.65
2023-02-17T03:54:07.754Z,0.66
2023-02-17T03:56:34.527Z,0.69
2023-02-17T03:59:01.166Z,0.60
2023-02-17T04:01:28.074Z,0.63
2023-02-17T04:03:55.124Z,0.70
2023-02-17T04:06:21.771Z,0.61
2023-02-17T04:08:48.501Z,0.70
2023-02-17T04:11:15.696Z,0.70
2023-02-17T04:13:42.486Z,0.70
2023-02-17T04:16:10.354Z,0.61
2023-02-17T04:18:37.785Z,0.63
2023-02-17T04:21:05.625Z,0.72
2023-02-17T04:23:32.344Z,0.57
2023-02-17T04:25:59.470Z,0.70
2023-02-17T04:28:26.412Z,0.62
2023-02-17T04:30:53.178Z,0.69
2023-02-17T04:33:20.158Z,0.68
2023-02-17T04:35:47.981Z,0.68
2023-02-17T04:38:15.109Z,0.67
2023-02-17T04:40:42.749Z,0.67
2023-02-17T04:43:09.953Z,0.65
2023-02-17T04:45:37.318Z,0.66
2023-02-17T04:48:04.444Z,0.68
2023-02-17T04:50:31.114Z,0.69
2023-02-17T04:52:57.796Z,0.68
2023-02-17T04:55:24.802Z,0.68
2023-02-17T04:57:51.470Z,0.68
2023-02-17T05:00:18.425Z,0.69
2023-02-17T05:02:45.328Z,0.69
2023-02-17T05:05:15.250Z,0.68
2023-02-17T05:07:43.266Z,0.70
2023-02-17T05:10:10.653Z,0.67
2023-02-17T05:12:38.222Z,0.68
2023-02-17T05:15:05.943Z,0.68
2023-02-17T05:17:33.027Z,0.65
2023-02-17T05:20:00.125Z,0.68
2023-02-17T05:22:27.200Z,0.67
2023-02-17T05:24:54.485Z,0.57
2023-02-17T05:27:21.386Z,0.64
2023-02-17T05:29:48.176Z,0.64
2023-02-17T05:32:15.288Z,0.59
2023-02-17T05:34:42.056Z,0.56
2023-02-17T05:37:08.753Z,0.48
2023-02-17T05:39:35.839Z,0.43
2023-02-17T05:42:02.531Z,0.29
2023-02-17T05:44:29.277Z,0.32
2023-02-17T05:46:56.491Z,0.31
2023-02-17T05:49:23.707Z,0.30
2023-02-17T05:51:50.637Z,0.24
2023-02-17T05:54:18.191Z,0.21
2023-02-17T05:56:45.138Z,0.19
2023-02-17T05:59:11.871Z,0.19
2023-02-17T06:01:38.945Z,0.18
2023-02-17T06:04:06.006Z,0.20
2023-02-17T06:06:33.286Z,0.21
2023-02-17T06:09:00.686Z,0.23
2023-02-17T06:11:28.227Z,0.23
2023-02-17T06:13:55.353Z,0.24
2023-02-17T06:16:24.870Z,0.23
2023-02-17T06:18:52.084Z,0.24
2023-02-17T06:21:19.210Z,0.22
2023-02-17T06:23:46.477Z,0.22
2023-02-17T06:26:14.954Z,0.20
2023-02-17T06:28:41.883Z,0.20
2023-02-17T06:31:09.615Z,0.21
2023-02-17T06:33:37.454Z,0.22
2023-02-17T06:36:05.543Z,0.22
2023-02-17T06:38:32.837Z,0.22
2023-02-17T06:41:01.827Z,0.24
2023-02-17T06:43:29.181Z,0.24
2023-02-17T06:45:56.397Z,0.21
2023-02-17T06:48:23.380Z,0.23
2023-02-17T06:50:50.510Z,0.22
2023-02-17T06:53:17.161Z,0.22
2023-02-17T06:55:44.964Z,0.22
2023-02-17T06:58:12.015Z,0.24
2023-02-17T07:00:38.832Z,0.24
2023-02-17T07:03:05.980Z,0.25
2023-02-17T07:05:36.179Z,0.27
2023-02-17T07:08:04.092Z,0.26
2023-02-17T07:10:31.629Z,0.18
2023-02-17T07:12:58.547Z,0.32
2023-02-17T07:15:25.439Z,0.31
2023-02-17T07:17:52.406Z,0.34
2023-02-17T07:20:19.412Z,0.30
2023-02-17T07:22:46.403Z,0.34
2023-02-17T07:25:13.744Z,0.34
2023-02-17T07:27:40.474Z,0.34
2023-02-17T07:30:07.789Z,0.35
2023-02-17T07:32:44.357Z,0.25
2023-02-17T07:35:11.148Z,0.31
2023-02-17T07:37:38.238Z,0.30
2023-02-17T07:40:05.764Z,0.20
2023-02-17T07:42:32.508Z,0.28
2023-02-17T07:44:59.506Z,0.32
2023-02-17T07:47:26.384Z,0.33
2023-02-17T07:49:53.019Z,0.24
2023-02-17T07:52:20.034Z,0.29
2023-02-17T07:54:46.981Z,0.40
2023-02-17T07:57:13.806Z,0.40
2023-02-17T07:59:40.793Z,0.40
2023-02-17T08:02:07.561Z,0.32
2023-02-17T08:04:34.627Z,0.45
2023-02-17T08:07:01.353Z,0.49
2023-02-17T08:09:47.128Z,0.44
2023-02-17T08:12:38.438Z,0.51
2023-02-17T08:15:07.833Z,0.49
2023-02-17T08:17:35.397Z,0.45
2023-02-17T08:20:08.569Z,0.55
2023-02-17T08:22:37.209Z,0.59
2023-02-17T08:25:06.191Z,0.64
2023-02-17T08:27:33.038Z,0.69
2023-02-17T08:30:00.573Z,0.72
2023-02-17T08:32:27.590Z,0.75
2023-02-17T08:34:57.576Z,0.77
2023-02-17T08:37:24.588Z,0.79
2023-02-17T08:39:51.231Z,0.79
2023-02-17T08:42:18.069Z,0.77
2023-02-17T08:44:45.380Z,0.74
2023-02-17T08:47:12.253Z,0.83
2023-02-17T08:49:40.810Z,0.86
2023-02-17T08:52:08.027Z,0.89
2023-02-17T08:54:34.753Z,0.89
2023-02-17T08:57:01.463Z,0.94
2023-02-17T08:59:28.608Z,0.95
2023-02-17T09:01:55.799Z,0.97
2023-02-17T09:04:22.551Z,0.94
2023-02-17T09:06:56.684Z,1.03
2023-02-17T09:09:27.794Z,1.01
2023-02-17T09:11:57.154Z,1.03
2023-02-17T09:14:24.098Z,1.09
2023-02-17T09:16:51.959Z,1.11
2023-02-17T09:19:19.420Z,1.12
2023-02-17T09:21:46.369Z,1.13
2023-02-17T09:24:13.178Z,1.15
2023-02-17T09:26:40.251Z,1.15
2023-02-17T09:29:08.716Z,1.14
2023-02-17T09:31:36.242Z,1.13
2023-02-17T09:34:04.359Z,1.05
2023-02-17T09:36:33.777Z,1.14
2023-02-17T09:39:01.731Z,1.05
2023-02-17T09:41:38.018Z,1.09
2023-02-17T09:44:17.260Z,1.19
2023-02-17T09:47:01.679Z,1.23
2023-02-17T09:49:41.053Z,1.28
2023-02-17T09:52:27.233Z,1.30
2023-02-17T09:54:59.556Z,1.33
2023-02-17T09:57:29.417Z,1.27
2023-02-17T10:00:02.588Z,1.35
2023-02-17T10:02:49.098Z,1.32
2023-02-17T10:05:20.111Z,1.30
2023-02-17T10:07:56.854Z,1.33
2023-02-17T10:10:34.800Z,1.35
2023-02-17T10:13:03.134Z,1.41
2023-02-17T10:15:40.705Z,1.47
2023-02-17T10:18:26.642Z,1.56
2023-02-17T10:21:25.583Z,1.58
2023-02-17T10:23:52.466Z,1.57
2023-02-17T10:26:54.794Z,1.50
2023-02-17T10:29:32.108Z,1.61
2023-02-17T10:32:19.979Z,1.63
2023-02-17T10:35:02.401Z,1.67
2023-02-17T10:37:32.342Z,1.71
2023-02-17T10:40:01.438Z,1.77
2023-02-17T10:42:34.569Z,1.80
2023-02-17T10:45:06.607Z,1.87
2023-02-17T10:47:36.853Z,1.93
2023-02-17T10:50:08.100Z,1.99
2023-02-17T10:52:40.654Z,2.02
2023-02-17T10:55:33.046Z,1.68
2023-02-17T10:58:13.819Z,2.11
2023-02-17T11:00:42.720Z,2.12
2023-02-17T11:03:24.208Z,2.04
2023-02-17T11:05:59.565Z,2.08
2023-02-17T11:08:39.254Z,2.02
2023-02-17T11:11:15.992Z,2.02
2023-02-17T11:14:01.146Z,1.93
2023-02-17T11:16:35.150Z,1.90
2023-02-17T11:19:03.713Z,1.99
2023-02-17T11:21:33.237Z,1.95
2023-02-17T11:24:05.856Z,2.08
2023-02-17T11:26:36.388Z,2.13
2023-02-17T11:29:11.537Z,2.17
2023-02-17T11:31:38.693Z,2.16
2023-02-17T11:34:13.756Z,2.10
2023-02-17T11:36:40.970Z,2.10
2023-02-17T11:39:18.515Z,2.01
2023-02-17T11:41:45.510Z,2.06
2023-02-17T11:44:15.084Z,2.04
2023-02-17T11:46:53.335Z,1.95
2023-02-17T11:50:01.412Z,1.99
2023-02-17T11:52:27.988Z,1.97
2023-02-17T11:55:19.357Z,1.99
2023-02-17T11:57:59.045Z,1.92
2023-02-17T12:00:37.246Z,2.01
2023-02-17T12:03:36.841Z,2.00
2023-02-17T12:06:09.970Z,1.99
2023-02-17T12:09:04.843Z,1.95
2023-02-17T12:11:51.714Z,1.96
2023-02-17T12:14:37.466Z,1.93
2023-02-17T12:17:06.074Z,1.96
2023-02-17T12:19:45.780Z,1.97
2023-02-17T12:22:29.297Z,1.94
2023-02-17T12:25:26.795Z,1.85
2023-02-17T12:28:07.895Z,1.79
2023-02-17T12:31:01.024Z,1.74
2023-02-17T12:34:03.891Z,1.75
2023-02-17T12:36:36.663Z,1.74
2023-02-17T12:39:13.433Z,1.71
2023-02-17T12:42:01.230Z,1.64
2023-02-17T12:44:52.616Z,1.73
2023-02-17T12:47:58.299Z,1.75
2023-02-17T12:50:32.943Z,1.75
2023-02-17T12:53:05.524Z,1.82
2023-02-17T12:55:37.922Z,1.84
2023-02-17T12:58:15.887Z,1.84
2023-02-17T13:00:46.257Z,1.83
2023-02-17T13:03:13.289Z,1.77
2023-02-17T13:05:48.109Z,1.79
2023-02-17T13:08:18.093Z,1.77
2023-02-17T13:10:44.819Z,1.77
2023-02-17T13:13:25.578Z,1.67
2023-02-17T13:16:22.486Z,1.70
2023-02-17T13:18:52.127Z,1.64
2023-02-17T13:21:23.368Z,1.66
2023-02-17T13:24:07.066Z,1.68
2023-02-17T13:26:36.467Z,1.65
2023-02-17T13:29:32.181Z,1.61
2023-02-17T13:32:04.761Z,1.56
2023-02-17T13:34:42.459Z,1.51
2023-02-17T13:37:15.975Z,1.44
2023-02-17T13:39:43.041Z,1.55
2023-02-17T13:42:28.768Z,1.56
2023-02-17T13:44:55.554Z,1.55
2023-02-17T13:47:37.899Z,1.53
2023-02-17T13:50:05.145Z,1.53
2023-02-17T13:52:32.689Z,1.49
2023-02-17T13:55:02.292Z,1.40
2023-02-17T13:57:31.747Z,1.32
2023-02-17T14:00:09.260Z,1.26
2023-02-17T14:02:45.587Z,1.12
2023-02-17T14:05:30.549Z,1.18
2023-02-17T14:08:03.292Z,1.15
2023-02-17T14:10:30.845Z,0.91
2023-02-17T14:12:57.608Z,1.09
2023-02-17T14:15:28.230Z,1.06
2023-02-17T14:17:55.629Z,1.08
2023-02-17T14:20:25.109Z,1.09
2023-02-17T14:23:13.252Z,0.98
2023-02-17T14:25:44.861Z,1.05
2023-02-17T14:28:38.157Z,1.01
2023-02-17T14:31:12.358Z,1.00
2023-02-17T14:33:39.176Z,0.95
2023-02-17T14:36:09.201Z,0.97
2023-02-17T14:38:40.516Z,0.96
2023-02-17T14:41:11.769Z,0.94
2023-02-17T14:43:38.478Z,0.90
2023-02-17T14:46:05.737Z,0.85
2023-02-17T14:48:32.906Z,0.83
2023-02-17T14:51:00.018Z,0.83
2023-02-17T14:53:29.565Z,0.80
2023-02-17T14:56:01.510Z,0.75
2023-02-17T14:58:29.381Z,0.74
2023-02-17T15:00:56.720Z,0.72
2023-02-17T15:03:23.800Z,0.70
2023-02-17T15:05:50.901Z,0.70
2023-02-17T15:08:28.001Z,0.67
2023-02-17T15:10:55.089Z,0.63
2023-02-17T15:13:22.486Z,0.60
2023-02-17T15:15:49.753Z,0.59
2023-02-17T15:18:18.942Z,0.58
2023-02-17T15:20:50.097Z,0.57
2023-02-17T15:23:19.748Z,0.54
2023-02-17T15:25:48.275Z,0.53
2023-02-17T15:28:16.896Z,0.53
2023-02-17T15:30:51.271Z,0.52
2023-02-17T15:33:18.654Z,0.49
2023-02-17T15:35:50.984Z,0.35
2023-02-17T15:38:17.898Z,0.44
2023-02-17T15:40:44.632Z,0.40
2023-02-17T15:43:15.166Z,0.33
2023-02-17T15:45:42.318Z,0.20
2023-02-17T15:48:14.312Z,0.20
2023-02-17T15:50:40.975Z,0.18
2023-02-17T15:53:07.904Z,0.11
2023-02-17T15:55:34.848Z,0.10
2023-02-17T15:58:06.034Z,0.07
2023-02-17T16:00:35.601Z,0.01
2023-02-17T16:03:03.315Z,-0.12
2023-02-17T16:05:30.941Z,-0.07
2023-02-17T16:07:58.107Z,-0.19
2023-02-17T16:10:29.801Z,-0.14
2023-02-17T16:13:00.067Z,-0.17
2023-02-17T16:15:31.023Z,-0.19
2023-02-17T16:17:58.962Z,-0.22
2023-02-17T16:20:35.216Z,-0.24
2023-02-17T16:23:03.052Z,-0.26
2023-02-17T16:25:30.166Z,-0.31
2023-02-17T16:27:57.822Z,-0.30
2023-02-17T16:30:30.497Z,-0.31
2023-02-17T16:32:57.836Z,-0.33
2023-02-17T16:35:28.103Z,-0.37
2023-02-17T16:38:02.049Z,-0.36
2023-02-17T16:40:31.981Z,-0.37
2023-02-17T16:42:58.744Z,-0.39
2023-02-17T16:45:29.290Z,-0.41
2023-02-17T16:48:00.439Z,-0.39
2023-02-17T16:50:35.087Z,-0.37
2023-02-17T16:53:06.015Z,-0.36
2023-02-17T16:55:34.716Z,-0.36
2023-02-17T16:58:02.724Z,-0.36
2023-02-17T17:00:32.434Z,-0.34
2023-02-17T17:02:59.728Z,-0.34
2023-02-17T17:05:29.501Z,-0.34
2023-02-17T17:07:57.404Z,-0.30
2023-02-17T17:10:27.762Z,-0.32
2023-02-17T17:12:54.458Z,-0.27
2023-02-17T17:15:22.144Z,-0.31
2023-02-17T17:17:48.725Z,-0.29
2023-02-17T17:20:18.275Z,-0.30
2023-02-17T17:22:46.709Z,-0.29
2023-02-17T17:25:14.570Z,-0.31
2023-02-17T17:27:41.817Z,-0.26
2023-02-17T17:30:16.282Z,-0.26
2023-02-17T17:32:43.131Z,-0.27
2023-02-17T17:35:10.167Z,-0.30
2023-02-17T17:37:39.369Z,-0.33
2023-02-17T17:40:07.477Z,-0.36
2023-02-17T17:42:37.598Z,-0.39
2023-02-17T17:45:04.708Z,-0.44
2023-02-17T17:47:32.088Z,-0.43
2023-02-17T17:49:59.222Z,-0.45
2023-02-17T17:52:26.120Z,-0.47
2023-02-17T17:54:52.807Z,-0.48
2023-02-17T17:57:19.685Z,-0.50
2023-02-17T17:59:46.308Z,-0.50
2023-02-17T18:02:12.948Z,-0.59
2023-02-17T18:04:39.863Z,-0.50
2023-02-17T18:07:06.835Z,-0.47
2023-02-17T18:09:38.071Z,-0.46
2023-02-17T18:12:11.069Z,-0.47
2023-02-17T18:14:40.128Z,-0.45
2023-02-17T18:17:09.700Z,-0.53
2023-02-17T18:19:36.580Z,-0.54
2023-02-17T18:22:03.277Z,-0.47
2023-02-17T18:24:30.461Z,-0.47
2023-02-17T18:26:57.301Z,-0.49
2023-02-17T18:29:24.197Z,-0.52
2023-02-17T18:31:51.256Z,-0.47
2023-02-17T18:34:17.932Z,-0.49
2023-02-17T18:36:45.264Z,-0.48
2023-02-17T18:39:12.416Z,-0.49
2023-02-17T18:41:39.127Z,-0.51
2023-02-17T18:44:06.110Z,-0.49
2023-02-17T18:46:33.482Z,-0.48
2023-02-17T18:49:00.506Z,-0.58
2023-02-17T18:51:27.798Z,-0.49
2023-02-17T18:53:56.783Z,-0.49
2023-02-17T18:56:26.230Z,-0.49
2023-02-17T18:58:55.303Z,-0.51
2023-02-17T19:01:23.804Z,-0.62
2023-02-17T19:03:51.853Z,-0.54
2023-02-17T19:06:23.839Z,-0.57
2023-02-17T19:08:51.530Z,-0.56
2023-02-17T19:11:19.887Z,-0.60
2023-02-17T19:13:46.812Z,-0.59
2023-02-17T19:16:25.512Z,-0.61
2023-02-17T19:18:52.674Z,-0.60
2023-02-17T19:21:20.588Z,-0.59
2023-02-17T19:23:48.336Z,-0.59
2023-02-17T19:26:16.830Z,-0.60
2023-02-17T19:28:44.729Z,-0.62
2023-02-17T19:31:17.558Z,-0.58
2023-02-17T19:33:45.738Z,-0.57
2023-02-17T19:36:15.792Z,-0.56
2023-02-17T19:38:43.364Z,-0.55
2023-02-17T19:41:11.905Z,-0.54
2023-02-17T19:43:40.553Z,-0.51
2023-02-17T19:46:07.986Z,-0.51
2023-02-17T19:48:35.201Z,-0.51
2023-02-17T19:51:04.630Z,-0.52
2023-02-17T19:53:33.789Z,-0.49
2023-02-17T19:56:13.014Z,-0.50
2023-02-17T19:58:41.419Z,-0.50
2023-02-17T20:01:14.414Z,-0.48
2023-02-17T20:03:42.200Z,-0.46
2023-02-17T20:06:25.701Z,-0.45
2023-02-17T20:08:59.648Z,-0.46
2023-02-17T20:11:27.727Z,-0.45
2023-02-17T20:13:56.708Z,-0.42
2023-02-17T20:16:23.503Z,-0.40
2023-02-17T20:18:51.104Z,-0.49
2023-02-17T20:21:21.778Z,-0.38
2023-02-17T20:23:48.950Z,-0.39
2023-02-17T20:26:19.951Z,-0.48
2023-02-17T20:28:47.958Z,-0.38
2023-02-17T20:31:15.416Z,-0.36
2023-02-17T20:33:42.154Z,-0.36
2023-02-17T20:36:12.100Z,-0.34
2023-02-17T20:38:41.256Z,-0.44
2023-02-17T20:41:09.993Z,-0.38
2023-02-17T20:43:38.540Z,-0.36
2023-02-17T20:46:06.071Z,-0.37
2023-02-17T20:48:33.516Z,-0.35
2023-02-17T20:51:00.714Z,-0.39
2023-02-17T20:53:27.448Z,-0.37
2023-02-17T20:55:54.254Z,-0.39
2023-02-17T20:58:21.477Z,-0.37
2023-02-17T21:00:48.634Z,-0.37
2023-02-17T21:03:15.658Z,-0.36
2023-02-17T21:05:42.717Z,-0.34
2023-02-17T21:08:09.755Z,-0.42
2023-02-17T21:10:36.570Z,-0.33
2023-02-17T21:13:03.577Z,-0.34
2023-02-17T21:15:30.253Z,-0.33
2023-02-17T21:17:56.938Z,-0.31
2023-02-17T21:20:23.993Z,-0.30
2023-02-17T21:22:51.229Z,-0.30
2023-02-17T21:25:17.945Z,-0.33
2023-02-17T21:27:44.912Z,-0.27
2023-02-17T21:30:12.757Z,-0.27
2023-02-17T21:32:39.547Z,-0.29
2023-02-17T21:35:10.619Z,-0.27
2023-02-17T21:37:38.964Z,-0.25
2023-02-17T21:40:11.281Z,-0.24
2023-02-17T21:42:58.317Z,-0.24
2023-02-17T21:45:25.701Z,-0.24
2023-02-17T21:47:53.568Z,-0.31
2023-02-17T21:50:23.257Z,-0.27
2023-02-17T21:52:50.650Z,-0.25
2023-02-17T21:55:17.698Z,-0.32
2023-02-17T21:57:44.438Z,-0.33
2023-02-17T22:00:12.917Z,-0.30
2023-02-17T22:02:39.999Z,-0.30
2023-02-17T22:05:08.833Z,-0.21
2023-02-17T22:07:35.682Z,-0.23
2023-02-17T22:10:03.834Z,-0.21
2023-02-17T22:12:30.783Z,-0.20
2023-02-17T22:14:57.526Z,-0.19
2023-02-17T22:17:24.188Z,-0.20
2023-02-17T22:19:51.200Z,-0.29
2023-02-17T22:22:17.809Z,-0.27
2023-02-17T22:24:44.565Z,-0.25
2023-02-17T22:27:11.592Z,-0.16
2023-02-17T22:29:38.262Z,-0.19
2023-02-17T22:32:05.213Z,-0.15
2023-02-17T22:34:32.419Z,-0.15
2023-02-17T22:36:59.077Z,-0.17
2023-02-17T22:39:25.750Z,-0.17
2023-02-17T22:41:52.711Z,-0.13
2023-02-17T22:44:19.423Z,-0.13
2023-02-17T22:46:46.110Z,-0.15
2023-02-17T22:49:13.273Z,-0.13
2023-02-17T22:51:40.554Z,-0.11
2023-02-17T22:54:07.865Z,-0.11
2023-02-17T22:56:35.310Z,-0.10
2023-02-17T22:59:03.970Z,-0.19
2023-02-17T23:01:33.158Z,-0.09
2023-02-17T23:04:00.683Z,-0.14
2023-02-17T23:06:31.909Z,-0.14
2023-02-17T23:08:59.495Z,-0.13
2023-02-17T23:11:48.980Z,-0.06
2023-02-17T23:14:23.203Z,-0.04
2023-02-17T23:16:50.668Z,-0.03
2023-02-17T23:19:20.617Z,-0.02
2023-02-17T23:21:52.944Z,0.02
2023-02-17T23:24:20.964Z,0.03
2023-02-17T23:26:48.238Z,0.03
2023-02-17T23:29:16.264Z,0.05
2023-02-17T23:31:49.599Z,-0.02
2023-02-17T23:34:16.712Z,0.09
2023-02-17T23:36:45.481Z,0.12
2023-02-17T23:39:13.302Z,0.12
2023-02-17T23:41:40.339Z,0.08
2023-02-17T23:44:09.621Z,0.07
2023-02-17T23:46:36.593Z,0.01
2023-02-17T23:49:03.442Z,0.21
2023-02-17T23:51:30.467Z,0.15
2023-02-17T23:53:57.146Z,0.25
2023-02-17T23:56:34.985Z,0.16
2023-02-17T23:59:02.597Z,0.25
